createdAt,value
2023-03-11T00:01:12.745Z,10.50
2023-03-11T00:03:41.332Z,11.50
2023-03-11T00:06:10.312Z,10.83
2023-03-11T00:08:38.778Z,11.87
2023-03-11T00:11:07.592Z,10.30
2023-03-11T00:13:36.917Z,11.33
2023-03-11T00:16:06.519Z,8.40
2023-03-11T00:18:36.415Z,9.37
2023-03-11T00:21:05.654Z,8.70
2023-03-11T00:23:35.561Z,8.37
2023-03-11T00:26:04.358Z,10.00
2023-03-11T00:28:34.333Z,9.50
2023-03-11T00:31:04.584Z,9.33
2023-03-11T00:33:33.057Z,9.63
2023-03-11T00:36:03.823Z,9.90
2023-03-11T00:38:32.355Z,9.50
2023-03-11T00:41:02.130Z,9.10
2023-03-11T00:43:33.121Z,9.47
2023-03-11T00:46:01.930Z,9.00
2023-03-11T00:48:30.641Z,9.07
2023-03-11T00:50:59.485Z,9.43
2023-03-11T00:53:29.538Z,10.73
2023-03-11T00:55:58.376Z,9.70
2023-03-11T00:58:29.059Z,10.63
2023-03-11T01:00:58.894Z,10.43
2023-03-11T01:03:27.343Z,9.60
2023-03-11T01:05:56.117Z,10.57
2023-03-11T01:08:29.562Z,9.93
2023-03-11T01:11:00.188Z,9.20
2023-03-11T01:13:30.346Z,10.13
2023-03-11T01:15:59.675Z,8.53
2023-03-11T01:18:28.496Z,9.20
2023-03-11T01:20:57.256Z,10.53
2023-03-11T01:23:25.701Z,8.97
2023-03-11T01:25:56.019Z,8.63
2023-03-11T01:28:26.228Z,11.33
2023-03-11T01:30:55.059Z,8.17
2023-03-11T01:33:23.592Z,8.53
2023-03-11T01:35:52.410Z,8.90
2023-03-11T01:38:20.874Z,7.23
2023-03-11T01:40:52.304Z,8.17
2023-03-11T01:43:51.417Z,8.27
2023-03-11T01:46:25.683Z,8.87
2023-03-11T01:48:55.988Z,8.17
2023-03-11T01:51:29.561Z,7.53
2023-03-11T01:54:02.824Z,7.57
2023-03-11T01:56:33.060Z,7.07
2023-03-11T01:59:03.679Z,7.00
2023-03-11T02:01:32.460Z,7.10
2023-03-11T02:04:04.827Z,7.70
2023-03-11T02:06:34.560Z,7.20
2023-03-11T02:09:03.558Z,8.00
2023-03-11T02:11:33.159Z,7.10
2023-03-11T02:14:07.328Z,7.10
2023-03-11T02:16:36.382Z,8.27
2023-03-11T02:19:12.887Z,7.90
2023-03-11T02:21:41.830Z,8.83
2023-03-11T02:24:17.140Z,8.50
2023-03-11T02:26:55.859Z,7.70
2023-03-11T02:29:26.312Z,8.93
2023-03-11T02:31:57.075Z,8.77
2023-03-11T02:34:28.470Z,6.53
2023-03-11T02:36:59.145Z,8.03
2023-03-11T02:39:32.429Z,7.40
2023-03-11T02:42:06.727Z,8.30
2023-03-11T02:44:35.938Z,7.17
2023-03-11T02:47:05.159Z,7.43
2023-03-11T02:49:34.074Z,6.73
2023-03-11T02:52:02.895Z,9.57
2023-03-11T02:54:32.243Z,6.10
2023-03-11T02:57:02.469Z,8.20
2023-03-11T02:59:31.055Z,7.30
2023-03-11T03:02:02.141Z,6.10
2023-03-11T03:04:31.209Z,6.10
2023-03-11T03:07:01.084Z,6.83
2023-03-11T03:09:29.635Z,5.97
2023-03-11T03:11:58.501Z,6.73
2023-03-11T03:14:28.783Z,6.67
2023-03-11T03:16:57.617Z,7.40
2023-03-11T03:19:26.151Z,18.23
2023-03-11T03:21:56.210Z,51.27
2023-03-11T03:24:25.724Z,59.53
2023-03-11T03:26:54.961Z,60.63
2023-03-11T03:29:23.407Z,56.20
2023-03-11T03:31:53.794Z,64.60
2023-03-11T03:34:23.030Z,66.90
2023-03-11T03:36:52.076Z,68.73
2023-03-11T03:39:20.578Z,70.93
2023-03-11T03:41:51.804Z,68.23
2023-03-11T03:44:21.222Z,70.67
2023-03-11T03:46:49.947Z,67.20
2023-03-11T03:49:20.370Z,62.87
2023-03-11T03:51:49.465Z,63.27
2023-03-11T03:54:25.156Z,62.17
2023-03-11T03:56:54.063Z,63.13
2023-03-11T03:59:22.859Z,61.60
2023-03-11T04:01:56.507Z,65.40
2023-03-11T04:04:28.444Z,65.23
2023-03-11T04:06:58.662Z,65.43
2023-03-11T04:09:27.843Z,63.93
2023-03-11T04:11:56.914Z,63.70
2023-03-11T04:14:25.684Z,60.63
2023-03-11T04:16:58.989Z,60.97
2023-03-11T04:19:29.548Z,60.83
2023-03-11T04:21:58.940Z,59.50
2023-03-11T04:24:28.523Z,56.30
2023-03-11T04:26:57.928Z,57.60
2023-03-11T04:29:26.655Z,58.53
2023-03-11T04:31:56.153Z,57.03
2023-03-11T04:34:24.598Z,55.03
2023-03-11T04:36:55.890Z,55.57
2023-03-11T04:39:29.986Z,53.50
2023-03-11T04:41:59.216Z,56.70
2023-03-11T04:44:28.987Z,58.67
2023-03-11T04:46:58.176Z,57.23
2023-03-11T04:49:26.950Z,56.90
2023-03-11T04:51:57.806Z,60.07
2023-03-11T04:54:27.304Z,58.03
2023-03-11T04:56:56.137Z,60.47
2023-03-11T04:59:25.500Z,62.30
2023-03-11T05:01:55.430Z,63.03
2023-03-11T05:04:24.162Z,60.20
2023-03-11T05:06:53.165Z,58.87
2023-03-11T05:09:26.285Z,57.20
2023-03-11T05:11:55.465Z,57.23
2023-03-11T05:14:23.973Z,57.00
2023-03-11T05:16:54.657Z,59.03
2023-03-11T05:19:32.270Z,56.63
2023-03-11T05:22:05.734Z,57.10
2023-03-11T05:24:35.983Z,58.67
2023-03-11T05:27:06.010Z,59.97
2023-03-11T05:29:35.979Z,56.80
2023-03-11T05:32:06.092Z,62.33
2023-03-11T05:34:34.705Z,60.43
2023-03-11T05:37:04.013Z,62.00
2023-03-11T05:39:33.378Z,62.17
2023-03-11T05:42:03.679Z,63.47
2023-03-11T05:44:32.849Z,63.60
2023-03-11T05:47:01.962Z,61.70
2023-03-11T05:49:31.157Z,60.40
2023-03-11T05:52:00.320Z,61.33
2023-03-11T05:54:31.688Z,60.40
2023-03-11T05:57:01.269Z,66.63
2023-03-11T05:59:32.480Z,82.67
2023-03-11T06:02:04.985Z,74.13
2023-03-11T06:04:33.744Z,75.97
2023-03-11T06:07:04.391Z,80.30
2023-03-11T06:09:37.079Z,68.67
2023-03-11T06:12:08.426Z,73.07
2023-03-11T06:15:01.295Z,86.10
2023-03-11T06:17:30.628Z,64.70
2023-03-11T06:19:59.930Z,69.73
2023-03-11T06:22:28.734Z,85.13
2023-03-11T06:24:57.400Z,87.80
2023-03-11T06:27:26.831Z,88.70
2023-03-11T06:29:56.033Z,79.20
2023-03-11T06:32:29.600Z,83.27
2023-03-11T06:34:58.491Z,87.27
2023-03-11T06:37:27.348Z,87.87
2023-03-11T06:39:57.868Z,84.67
2023-03-11T06:42:28.305Z,78.50
2023-03-11T06:44:59.427Z,83.07
2023-03-11T06:47:30.173Z,83.00
2023-03-11T06:49:58.804Z,86.47
2023-03-11T06:52:28.869Z,85.00
2023-03-11T06:54:58.462Z,90.43
2023-03-11T06:57:29.531Z,87.80
2023-03-11T07:00:00.250Z,79.93
2023-03-11T07:02:30.649Z,88.20
2023-03-11T07:04:59.233Z,89.23
2023-03-11T07:07:28.407Z,85.40
2023-03-11T07:09:57.705Z,85.83
2023-03-11T07:12:26.758Z,86.77
2023-03-11T07:14:59.486Z,87.37
2023-03-11T07:17:30.653Z,82.27
2023-03-11T07:19:59.441Z,86.60
2023-03-11T07:22:28.325Z,82.70
2023-03-11T07:24:56.734Z,87.50
2023-03-11T07:27:25.982Z,87.63
2023-03-11T07:29:54.507Z,87.07
2023-03-11T07:32:23.666Z,83.93
2023-03-11T07:34:53.790Z,82.93
2023-03-11T07:37:22.601Z,82.40
2023-03-11T07:39:51.533Z,83.33
2023-03-11T07:42:20.689Z,86.00
2023-03-11T07:44:52.349Z,81.03
2023-03-11T07:47:21.586Z,81.27
2023-03-11T07:49:50.205Z,84.73
2023-03-11T07:52:20.292Z,82.97
2023-03-11T07:54:48.822Z,80.70
2023-03-11T07:57:17.984Z,83.07
2023-03-11T07:59:46.481Z,78.10
2023-03-11T08:02:15.375Z,81.33
2023-03-11T08:04:43.987Z,79.90
2023-03-11T08:07:12.927Z,81.60
2023-03-11T08:09:42.795Z,83.30
2023-03-11T08:12:11.660Z,87.60
2023-03-11T08:14:40.112Z,83.77
2023-03-11T08:17:08.905Z,81.30
2023-03-11T08:19:37.482Z,79.27
2023-03-11T08:22:06.431Z,85.37
2023-03-11T08:24:35.775Z,84.30
2023-03-11T08:27:06.211Z,84.73
2023-03-11T08:29:34.676Z,82.73
2023-03-11T08:32:04.983Z,84.50
2023-03-11T08:34:35.141Z,80.83
2023-03-11T08:37:04.568Z,81.47
2023-03-11T08:39:33.185Z,81.50
2023-03-11T08:42:02.990Z,82.43
2023-03-11T08:44:33.436Z,81.60
2023-03-11T08:47:02.549Z,81.70
2023-03-11T08:49:31.133Z,82.43
2023-03-11T08:52:00.427Z,79.47
2023-03-11T08:54:29.324Z,78.57
2023-03-11T08:56:58.844Z,85.70
2023-03-11T08:59:27.347Z,81.50
2023-03-11T09:01:58.124Z,83.80
2023-03-11T09:04:26.753Z,83.13
2023-03-11T09:06:55.632Z,81.10
2023-03-11T09:09:24.151Z,84.87
2023-03-11T09:11:52.884Z,83.97
2023-03-11T09:14:21.414Z,82.17
2023-03-11T09:16:50.148Z,82.30
2023-03-11T09:19:19.969Z,82.90
2023-03-11T09:21:48.729Z,81.90
2023-03-11T09:24:17.255Z,81.13
2023-03-11T09:26:46.163Z,82.00
2023-03-11T09:29:14.653Z,78.10
2023-03-11T09:31:43.500Z,82.73
2023-03-11T09:34:15.996Z,81.77
2023-03-11T09:36:47.027Z,82.83
2023-03-11T09:39:15.530Z,82.37
2023-03-11T09:41:57.953Z,83.67
2023-03-11T09:44:34.616Z,80.67
2023-03-11T09:47:36.956Z,83.00
2023-03-11T09:50:27.517Z,81.10
2023-03-11T09:53:11.784Z,81.43
2023-03-11T09:55:45.406Z,84.00
2023-03-11T09:58:18.922Z,86.10
2023-03-11T10:00:48.656Z,86.00
2023-03-11T10:03:33.600Z,88.70
2023-03-11T10:06:10.791Z,87.43
2023-03-11T10:08:45.050Z,85.57
2023-03-11T10:11:37.144Z,66.10
2023-03-11T10:14:21.702Z,80.17
2023-03-11T10:16:58.852Z,72.50
2023-03-11T10:19:37.986Z,58.03
2023-03-11T10:22:14.387Z,61.83
2023-03-11T10:24:57.751Z,68.20
2023-03-11T10:27:31.643Z,71.40
2023-03-11T10:30:08.172Z,64.97
2023-03-11T10:32:42.470Z,65.57
2023-03-11T10:35:19.648Z,74.67
2023-03-11T10:37:53.709Z,65.07
2023-03-11T10:40:30.533Z,66.63
2023-03-11T10:43:02.937Z,73.30
2023-03-11T10:45:37.891Z,79.37
2023-03-11T10:48:11.293Z,85.47
2023-03-11T10:50:48.077Z,78.83
2023-03-11T10:53:19.590Z,88.03
2023-03-11T10:55:52.214Z,77.17
2023-03-11T10:58:23.717Z,75.77
2023-03-11T11:01:02.929Z,75.70
2023-03-11T11:03:32.108Z,60.07
2023-03-11T11:06:03.366Z,68.67
2023-03-11T11:08:32.850Z,57.67
2023-03-11T11:11:05.579Z,60.30
2023-03-11T11:13:35.541Z,58.90
2023-03-11T11:16:07.121Z,61.90
2023-03-11T11:18:38.023Z,57.13
2023-03-11T11:21:09.740Z,58.60
2023-03-11T11:23:42.660Z,57.83
2023-03-11T11:26:21.350Z,58.93
2023-03-11T11:29:08.995Z,58.73
2023-03-11T11:31:39.413Z,55.97
2023-03-11T11:34:30.039Z,55.07
2023-03-11T11:37:01.708Z,58.27
2023-03-11T11:39:34.492Z,54.13
2023-03-11T11:42:05.537Z,56.93
2023-03-11T11:44:35.829Z,60.40
2023-03-11T11:47:13.241Z,62.43
2023-03-11T11:49:49.978Z,54.20
2023-03-11T11:52:23.730Z,55.97
2023-03-11T11:54:55.423Z,57.83
2023-03-11T11:57:26.262Z,57.07
2023-03-11T11:59:57.317Z,64.33
2023-03-11T12:02:44.997Z,75.97
2023-03-11T12:05:19.737Z,72.23
2023-03-11T12:08:02.751Z,72.90
2023-03-11T12:10:36.073Z,75.33
2023-03-11T12:13:41.636Z,80.10
2023-03-11T12:16:21.257Z,59.67
2023-03-11T12:18:55.187Z,73.87
2023-03-11T12:21:43.153Z,80.00
2023-03-11T12:24:26.386Z,76.60
2023-03-11T12:26:59.847Z,80.53
2023-03-11T12:29:32.640Z,81.03
2023-03-11T12:32:02.717Z,86.37
2023-03-11T12:34:35.279Z,76.23
2023-03-11T12:37:16.975Z,81.83
2023-03-11T12:39:45.921Z,89.80
2023-03-11T12:42:20.034Z,86.83
2023-03-11T12:44:50.977Z,80.53
2023-03-11T12:47:28.927Z,83.77
2023-03-11T12:50:36.980Z,87.87
2023-03-11T12:53:06.965Z,90.40
2023-03-11T12:55:38.256Z,91.40
2023-03-11T12:58:32.034Z,91.33
2023-03-11T13:01:35.312Z,93.83
2023-03-11T13:04:21.416Z,68.40
2023-03-11T13:07:09.655Z,71.80
2023-03-11T13:09:39.957Z,67.00
2023-03-11T13:12:40.523Z,71.00
2023-03-11T13:15:32.049Z,70.07
2023-03-11T13:18:02.706Z,81.10
2023-03-11T13:20:57.249Z,70.03
2023-03-11T13:23:43.686Z,61.27
2023-03-11T13:26:40.565Z,97.10
2023-03-11T13:29:55.190Z,93.10
2023-03-11T13:32:56.296Z,66.63
2023-03-11T13:35:41.692Z,90.77
2023-03-11T13:38:42.753Z,84.97
2023-03-11T13:41:17.459Z,86.97
2023-03-11T13:43:51.633Z,69.23
2023-03-11T13:46:28.978Z,76.37
2023-03-11T13:49:06.228Z,79.47
2023-03-11T13:51:40.660Z,91.53
2023-03-11T13:54:31.812Z,83.33
2023-03-11T13:57:02.710Z,81.67
2023-03-11T13:59:34.909Z,83.23
2023-03-11T14:02:16.261Z,69.30
2023-03-11T14:04:50.005Z,77.70
2023-03-11T14:07:25.101Z,67.40
2023-03-11T14:10:08.109Z,71.30
2023-03-11T14:12:36.940Z,87.63
2023-03-11T14:15:10.111Z,76.10
2023-03-11T14:17:38.883Z,96.00
2023-03-11T14:20:10.527Z,79.90
2023-03-11T14:22:39.727Z,68.27
2023-03-11T14:25:11.228Z,62.57
2023-03-11T14:27:40.194Z,68.73
2023-03-11T14:30:21.665Z,65.80
2023-03-11T14:32:59.247Z,75.30
2023-03-11T14:35:28.365Z,71.93
2023-03-11T14:37:57.790Z,144.23
2023-03-11T14:40:29.118Z,65.27
2023-03-11T14:43:00.417Z,67.97
2023-03-11T14:45:33.911Z,68.90
2023-03-11T14:48:08.217Z,81.67
2023-03-11T14:50:38.109Z,72.50
2023-03-11T14:53:10.144Z,66.90
2023-03-11T14:55:42.925Z,53.57
2023-03-11T14:58:20.126Z,57.27
2023-03-11T15:00:54.330Z,78.50
2023-03-11T15:03:26.533Z,66.80
2023-03-11T15:05:57.738Z,59.67
2023-03-11T15:08:30.817Z,52.23
2023-03-11T15:11:04.158Z,53.47
2023-03-11T15:13:33.537Z,52.63
2023-03-11T15:16:06.589Z,54.80
2023-03-11T15:18:38.182Z,53.10
2023-03-11T15:21:14.036Z,56.00
2023-03-11T15:23:47.243Z,57.57
2023-03-11T15:26:23.931Z,56.73
2023-03-11T15:28:57.829Z,49.30
2023-03-11T15:31:38.732Z,59.20
2023-03-11T15:34:31.023Z,64.37
2023-03-11T15:37:02.983Z,77.67
2023-03-11T15:39:51.148Z,75.83
2023-03-11T15:42:25.489Z,59.53
2023-03-11T15:45:14.092Z,68.80
2023-03-11T15:47:44.090Z,67.40
2023-03-11T15:50:30.199Z,57.30
2023-03-11T15:53:03.568Z,56.33
2023-03-11T15:55:32.393Z,54.07
2023-03-11T15:58:06.415Z,52.73
2023-03-11T16:00:37.187Z,56.40
2023-03-11T16:03:07.222Z,59.57
2023-03-11T16:05:36.049Z,55.97
2023-03-11T16:08:04.527Z,61.83
2023-03-11T16:10:33.745Z,58.40
2023-03-11T16:13:02.334Z,55.87
2023-03-11T16:15:35.987Z,52.30
2023-03-11T16:18:08.779Z,51.23
2023-03-11T16:20:42.350Z,53.67
2023-03-11T16:23:17.182Z,51.10
2023-03-11T16:25:46.561Z,62.80
2023-03-11T16:28:16.663Z,57.40
2023-03-11T16:30:46.619Z,54.03
2023-03-11T16:33:16.534Z,54.47
2023-03-11T16:35:45.413Z,52.20
2023-03-11T16:38:14.163Z,53.27
2023-03-11T16:40:43.165Z,53.63
2023-03-11T16:43:13.839Z,52.43
2023-03-11T16:45:42.560Z,51.33
2023-03-11T16:48:11.025Z,56.20
2023-03-11T16:50:41.220Z,62.50
2023-03-11T16:53:09.768Z,69.03
2023-03-11T16:55:38.488Z,59.50
2023-03-11T16:58:07.068Z,59.30
2023-03-11T17:00:36.374Z,60.50
2023-03-11T17:03:04.913Z,68.20
2023-03-11T17:05:33.824Z,64.30
2023-03-11T17:08:04.426Z,62.07
2023-03-11T17:10:38.689Z,59.47
2023-03-11T17:13:08.013Z,76.47
2023-03-11T17:15:38.191Z,66.47
2023-03-11T17:18:06.886Z,72.20
2023-03-11T17:20:37.167Z,54.70
2023-03-11T17:23:07.225Z,76.33
2023-03-11T17:25:35.985Z,57.03
2023-03-11T17:28:04.676Z,75.80
2023-03-11T17:30:37.024Z,66.47
2023-03-11T17:33:06.063Z,67.87
2023-03-11T17:35:34.898Z,66.13
2023-03-11T17:38:03.518Z,70.00
2023-03-11T17:40:33.744Z,69.30
2023-03-11T17:43:02.466Z,71.73
2023-03-11T17:45:31.229Z,70.57
2023-03-11T17:48:00.004Z,70.80
2023-03-11T17:50:28.761Z,67.10
2023-03-11T17:52:57.733Z,53.10
2023-03-11T17:55:26.531Z,53.07
2023-03-11T17:57:56.429Z,53.73
2023-03-11T18:00:25.565Z,51.53
2023-03-11T18:02:54.079Z,52.17
2023-03-11T18:05:23.422Z,51.90
2023-03-11T18:07:52.051Z,50.47
2023-03-11T18:10:21.485Z,52.00
2023-03-11T18:12:50.272Z,51.20
2023-03-11T18:15:22.593Z,51.37
2023-03-11T18:17:51.158Z,55.67
2023-03-11T18:20:20.385Z,49.40
2023-03-11T18:22:48.856Z,57.07
2023-03-11T18:25:17.730Z,52.97
2023-03-11T18:27:46.292Z,56.47
2023-03-11T18:30:15.585Z,59.00
2023-03-11T18:32:45.808Z,73.10
2023-03-11T18:35:17.385Z,48.90
2023-03-11T18:37:46.695Z,49.37
2023-03-11T18:40:16.026Z,58.27
2023-03-11T18:42:44.532Z,57.93
2023-03-11T18:45:13.994Z,52.70
2023-03-11T18:47:42.545Z,60.30
2023-03-11T18:50:13.450Z,52.27
2023-03-11T18:52:41.901Z,49.47
2023-03-11T18:55:11.096Z,54.47
2023-03-11T18:57:40.579Z,48.50
2023-03-11T19:00:12.218Z,55.43
2023-03-11T19:02:40.877Z,52.03
2023-03-11T19:05:10.750Z,51.07
2023-03-11T19:07:40.782Z,57.07
2023-03-11T19:10:12.246Z,64.63
2023-03-11T19:12:42.616Z,67.40
2023-03-11T19:15:13.332Z,59.53
2023-03-11T19:17:41.865Z,60.00
2023-03-11T19:20:12.196Z,61.97
2023-03-11T19:22:42.213Z,54.17
2023-03-11T19:25:11.427Z,55.43
2023-03-11T19:27:40.276Z,54.40
2023-03-11T19:30:10.560Z,55.60
2023-03-11T19:32:39.091Z,54.97
2023-03-11T19:35:10.902Z,57.13
2023-03-11T19:37:39.481Z,57.60
2023-03-11T19:40:11.617Z,56.83
2023-03-11T19:42:40.272Z,56.07
2023-03-11T19:45:09.789Z,58.97
2023-03-11T19:47:38.395Z,56.57
2023-03-11T19:50:07.873Z,59.50
2023-03-11T19:52:37.633Z,61.73
2023-03-11T19:55:07.486Z,58.43
2023-03-11T19:57:37.504Z,58.37
2023-03-11T20:00:07.910Z,74.03
2023-03-11T20:02:36.649Z,57.67
2023-03-11T20:05:06.179Z,61.20
2023-03-11T20:07:34.980Z,59.17
2023-03-11T20:10:04.510Z,57.53
2023-03-11T20:12:34.375Z,58.73
2023-03-11T20:15:04.741Z,58.27
2023-03-11T20:17:33.404Z,60.43
2023-03-11T20:20:02.283Z,59.53
2023-03-11T20:22:30.970Z,55.97
2023-03-11T20:24:59.776Z,59.77
2023-03-11T20:27:28.341Z,61.03
2023-03-11T20:29:57.239Z,59.77
2023-03-11T20:32:28.269Z,58.57
2023-03-11T20:34:57.144Z,56.80
2023-03-11T20:37:25.709Z,54.90
2023-03-11T20:39:54.795Z,63.20
2023-03-11T20:42:23.640Z,62.90
2023-03-11T20:44:53.104Z,69.13
2023-03-11T20:47:22.193Z,61.70
2023-03-11T20:49:53.231Z,59.90
2023-03-11T20:52:21.733Z,59.80
2023-03-11T20:54:50.762Z,56.60
2023-03-11T20:57:19.405Z,63.57
2023-03-11T20:59:48.162Z,60.17
2023-03-11T21:02:16.897Z,59.17
2023-03-11T21:04:46.470Z,64.30
2023-03-11T21:07:16.471Z,59.87
2023-03-11T21:09:45.296Z,56.90
2023-03-11T21:12:13.766Z,55.30
2023-03-11T21:14:42.584Z,51.40
2023-03-11T21:17:11.223Z,49.37
2023-03-11T21:19:40.229Z,51.53
2023-03-11T21:22:08.803Z,52.37
2023-03-11T21:24:39.033Z,52.53
2023-03-11T21:27:07.617Z,53.17
2023-03-11T21:29:38.305Z,53.47
2023-03-11T21:32:07.345Z,54.10
2023-03-11T21:34:36.131Z,49.20
2023-03-11T21:37:04.626Z,52.40
2023-03-11T21:39:33.746Z,49.13
2023-03-11T21:42:03.630Z,48.93
2023-03-11T21:44:32.639Z,49.47
2023-03-11T21:47:01.176Z,51.57
2023-03-11T21:49:31.359Z,51.63
2023-03-11T21:52:02.203Z,51.10
2023-03-11T21:54:31.312Z,50.47
2023-03-11T21:56:59.768Z,51.97
2023-03-11T21:59:31.092Z,47.83
2023-03-11T22:02:03.074Z,48.00
2023-03-11T22:04:32.749Z,48.23
2023-03-11T22:07:01.410Z,53.40
2023-03-11T22:09:30.273Z,54.30
2023-03-11T22:11:58.962Z,53.47
2023-03-11T22:14:29.237Z,52.13
2023-03-11T22:16:57.975Z,51.07
2023-03-11T22:19:27.311Z,45.60
2023-03-11T22:21:55.979Z,46.40
2023-03-11T22:24:24.801Z,49.17
2023-03-11T22:26:53.597Z,47.63
2023-03-11T22:29:22.401Z,46.40
2023-03-11T22:31:52.331Z,46.93
2023-03-11T22:34:21.303Z,43.23
2023-03-11T22:36:50.142Z,46.03
2023-03-11T22:39:18.834Z,44.63
2023-03-11T22:41:47.264Z,44.17
2023-03-11T22:44:16.053Z,44.37
2023-03-11T22:46:44.481Z,46.07
2023-03-11T22:49:14.660Z,44.30
2023-03-11T22:51:43.124Z,44.53
2023-03-11T22:54:12.032Z,47.10
2023-03-11T22:56:40.514Z,42.57
2023-03-11T22:59:09.296Z,43.10
2023-03-11T23:01:37.702Z,46.53
2023-03-11T23:04:06.552Z,45.93
2023-03-11T23:06:36.489Z,47.73
2023-03-11T23:09:05.918Z,48.27
2023-03-11T23:11:34.413Z,47.23
2023-03-11T23:14:03.113Z,45.60
2023-03-11T23:16:32.148Z,45.63
2023-03-11T23:19:01.250Z,45.27
2023-03-11T23:21:31.363Z,45.73
2023-03-11T23:24:05.060Z,44.63
2023-03-11T23:26:34.840Z,44.50
2023-03-11T23:29:04.504Z,43.93
2023-03-11T23:31:33.509Z,44.43
2023-03-11T23:34:02.444Z,43.17
2023-03-11T23:36:31.232Z,41.63
2023-03-11T23:39:01.377Z,41.87
2023-03-11T23:41:30.355Z,43.30
2023-03-11T23:43:59.089Z,42.83
2023-03-11T23:46:27.643Z,42.27
2023-03-11T23:48:56.721Z,42.63
2023-03-11T23:51:25.194Z,43.87
2023-03-11T23:53:53.920Z,43.70
2023-03-11T23:56:23.858Z,41.87
2023-03-11T23:58:52.900Z,46.70
